createdAt,value
2018-09-09T00:00:13.484Z,18.05
2018-09-09T00:02:43.030Z,18.19
2018-09-09T00:05:12.735Z,18.10
2018-09-09T00:07:42.176Z,18.11
2018-09-09T00:10:11.708Z,18.11
2018-09-09T00:12:41.150Z,18.00
2018-09-09T00:15:10.658Z,18.21
2018-09-09T00:17:40.263Z,18.21
2018-09-09T00:20:10.645Z,18.15
2018-09-09T00:22:40.310Z,18.06
2018-09-09T00:25:09.945Z,18.17
2018-09-09T00:27:40.797Z,18.14
2018-09-09T00:30:10.602Z,18.17
2018-09-09T00:32:40.478Z,18.18
2018-09-09T00:35:10.128Z,18.27
2018-09-09T00:37:39.637Z,18.34
2018-09-09T00:40:09.088Z,18.21
2018-09-09T00:42:38.639Z,18.38
2018-09-09T00:45:08.055Z,18.42
2018-09-09T00:47:37.476Z,18.47
2018-09-09T00:50:12.753Z,18.57
2018-09-09T00:52:47.377Z,18.53
2018-09-09T00:55:17.264Z,18.55
2018-09-09T00:57:46.741Z,18.54
2018-09-09T01:00:20.959Z,18.59
2018-09-09T01:02:50.465Z,18.66
2018-09-09T01:05:19.805Z,18.54
2018-09-09T01:07:50.099Z,18.72
2018-09-09T01:10:19.635Z,18.69
2018-09-09T01:12:49.197Z,18.69
2018-09-09T01:15:19.496Z,18.69
2018-09-09T01:17:48.911Z,18.67
2018-09-09T01:20:18.871Z,18.54
2018-09-09T01:22:48.682Z,18.50
2018-09-09T01:25:18.072Z,18.50
2018-09-09T01:27:47.493Z,18.58
2018-09-09T01:30:17.220Z,18.47
2018-09-09T01:32:46.650Z,18.47
2018-09-09T01:35:16.072Z,18.44
2018-09-09T01:37:46.007Z,18.35
2018-09-09T01:40:15.708Z,18.37
2018-09-09T01:42:45.146Z,18.38
2018-09-09T01:45:14.670Z,18.30
2018-09-09T01:47:44.133Z,18.19
2018-09-09T01:50:13.532Z,18.14
2018-09-09T01:52:43.658Z,18.02
2018-09-09T01:55:13.136Z,18.01
2018-09-09T01:57:42.608Z,17.99
2018-09-09T02:00:12.370Z,18.01
2018-09-09T02:02:41.749Z,17.84
2018-09-09T02:05:11.171Z,17.84
2018-09-09T02:07:40.969Z,17.89
2018-09-09T02:10:10.748Z,17.92
2018-09-09T02:12:40.284Z,17.88
2018-09-09T02:15:10.062Z,17.76
2018-09-09T02:17:39.667Z,17.53
2018-09-09T02:20:09.095Z,17.66
2018-09-09T02:22:39.504Z,17.57
2018-09-09T02:25:09.060Z,17.49
2018-09-09T02:27:38.424Z,17.43
2018-09-09T02:30:08.014Z,17.43
2018-09-09T02:32:37.794Z,17.38
2018-09-09T02:35:07.264Z,17.44
2018-09-09T02:37:37.002Z,17.17
2018-09-09T02:40:06.582Z,17.30
2018-09-09T02:42:36.182Z,17.10
2018-09-09T02:45:05.858Z,17.14
2018-09-09T02:47:35.400Z,17.10
2018-09-09T02:50:04.832Z,17.01
2018-09-09T02:52:34.300Z,17.06
2018-09-09T02:55:04.256Z,17.08
2018-09-09T02:57:33.686Z,17.11
2018-09-09T03:00:04.228Z,17.17
2018-09-09T03:02:33.663Z,17.10
2018-09-09T03:05:03.254Z,17.15
2018-09-09T03:07:32.797Z,17.26
2018-09-09T03:10:02.140Z,17.20
2018-09-09T03:12:32.157Z,17.25
2018-09-09T03:15:01.927Z,17.25
2018-09-09T03:17:31.582Z,17.11
2018-09-09T03:20:01.006Z,17.09
2018-09-09T03:22:31.378Z,17.13
2018-09-09T03:25:00.971Z,17.15
2018-09-09T03:27:30.485Z,17.14
2018-09-09T03:30:00.039Z,17.04
2018-09-09T03:32:29.627Z,17.03
2018-09-09T03:34:59.253Z,17.13
2018-09-09T03:37:28.932Z,17.01
2018-09-09T03:39:58.431Z,16.92
2018-09-09T03:42:28.170Z,17.00
2018-09-09T03:44:58.180Z,16.79
2018-09-09T03:47:27.735Z,16.67
2018-09-09T03:49:57.238Z,16.52
2018-09-09T03:52:26.816Z,16.44
2018-09-09T03:54:56.270Z,16.50
2018-09-09T03:57:25.776Z,16.42
2018-09-09T03:59:55.131Z,16.41
2018-09-09T04:02:24.543Z,16.17
2018-09-09T04:04:54.110Z,16.35
2018-09-09T04:07:23.942Z,16.28
2018-09-09T04:09:53.786Z,16.20
2018-09-09T04:12:23.320Z,16.07
2018-09-09T04:14:52.808Z,16.10
2018-09-09T04:17:22.384Z,15.90
2018-09-09T04:19:51.783Z,16.08
2018-09-09T04:22:21.222Z,16.16
2018-09-09T04:24:50.575Z,16.33
2018-09-09T04:27:20.119Z,16.30
2018-09-09T04:29:49.852Z,16.33
2018-09-09T04:32:19.202Z,16.22
2018-09-09T04:34:48.551Z,16.03
2018-09-09T04:37:17.951Z,15.95
2018-09-09T04:39:47.304Z,15.96
2018-09-09T04:42:16.594Z,16.07
2018-09-09T04:44:45.950Z,16.11
2018-09-09T04:47:15.354Z,16.18
2018-09-09T04:49:44.685Z,16.28
2018-09-09T04:52:14.459Z,16.25
2018-09-09T04:54:43.927Z,16.03
2018-09-09T04:57:13.238Z,16.21
2018-09-09T04:59:42.673Z,16.33
2018-09-09T05:02:12.074Z,16.36
2018-09-09T05:04:41.533Z,16.16
2018-09-09T05:07:11.036Z,16.17
2018-09-09T05:09:40.454Z,16.38
2018-09-09T05:12:09.847Z,16.54
2018-09-09T05:14:39.352Z,16.63
2018-09-09T05:17:08.832Z,16.54
2018-09-09T05:19:38.210Z,16.63
2018-09-09T05:22:07.619Z,16.73
2018-09-09T05:24:37.018Z,16.82
2018-09-09T05:27:06.468Z,16.90
2018-09-09T05:29:35.903Z,17.07
2018-09-09T05:32:05.304Z,17.22
2018-09-09T05:34:34.915Z,16.83
2018-09-09T05:37:04.552Z,16.97
2018-09-09T05:39:34.403Z,17.28
2018-09-09T05:42:05.326Z,17.42
2018-09-09T05:44:35.108Z,17.33
2018-09-09T05:47:04.549Z,17.38
2018-09-09T05:49:33.962Z,17.31
2018-09-09T05:52:03.500Z,17.39
2018-09-09T05:54:33.136Z,17.42
2018-09-09T05:57:02.768Z,17.48
2018-09-09T05:59:32.168Z,17.58
2018-09-09T06:02:01.506Z,17.70
2018-09-09T06:04:31.320Z,17.70
2018-09-09T06:07:07.719Z,17.72
2018-09-09T06:09:37.188Z,17.74
2018-09-09T06:12:06.695Z,17.68
2018-09-09T06:14:36.098Z,17.80
2018-09-09T06:17:06.412Z,18.07
2018-09-09T06:19:35.803Z,18.16
2018-09-09T06:22:05.264Z,18.35
2018-09-09T06:24:34.691Z,18.59
2018-09-09T06:27:04.069Z,18.76
2018-09-09T06:29:33.559Z,18.80
2018-09-09T06:32:02.979Z,19.18
2018-09-09T06:34:33.164Z,19.18
2018-09-09T06:37:02.647Z,19.29
2018-09-09T06:39:32.071Z,19.42
2018-09-09T06:42:01.539Z,19.74
2018-09-09T06:44:30.855Z,19.84
2018-09-09T06:47:00.255Z,20.08
2018-09-09T06:49:29.574Z,20.30
2018-09-09T06:51:59.078Z,20.42
2018-09-09T06:54:28.993Z,20.41
2018-09-09T06:56:58.291Z,20.30
2018-09-09T06:59:27.672Z,20.36
2018-09-09T07:01:58.545Z,20.43
2018-09-09T07:04:27.936Z,20.24
2018-09-09T07:06:57.291Z,20.25
2018-09-09T07:09:26.676Z,20.03
2018-09-09T07:11:56.213Z,20.03
2018-09-09T07:14:25.733Z,19.90
2018-09-09T07:16:55.195Z,19.92
2018-09-09T07:19:24.644Z,19.97
2018-09-09T07:21:54.098Z,20.01
2018-09-09T07:24:23.543Z,19.98
2018-09-09T07:26:52.935Z,19.96
2018-09-09T07:29:22.357Z,20.07
2018-09-09T07:31:51.944Z,20.30
2018-09-09T07:34:21.378Z,20.27
2018-09-09T07:36:50.678Z,20.38
2018-09-09T07:39:20.105Z,20.28
2018-09-09T07:41:49.507Z,20.38
2018-09-09T07:44:18.890Z,20.47
2018-09-09T07:46:48.597Z,20.43
2018-09-09T07:49:18.040Z,20.49
2018-09-09T07:51:47.405Z,20.68
2018-09-09T07:54:17.055Z,20.89
2018-09-09T07:56:46.812Z,21.00
2018-09-09T07:59:16.296Z,21.13
2018-09-09T08:01:45.752Z,21.22
2018-09-09T08:04:15.203Z,21.45
2018-09-09T08:06:44.665Z,21.21
2018-09-09T08:09:14.838Z,21.36
2018-09-09T08:11:44.288Z,21.52
2018-09-09T08:14:13.649Z,21.32
2018-09-09T08:16:43.182Z,21.44
2018-09-09T08:19:12.687Z,21.63
2018-09-09T08:21:42.112Z,21.50
2018-09-09T08:24:11.642Z,21.58
2018-09-09T08:26:41.122Z,21.52
2018-09-09T08:29:10.712Z,21.33
2018-09-09T08:31:40.160Z,21.61
2018-09-09T08:34:09.657Z,21.49
2018-09-09T08:36:38.948Z,21.73
2018-09-09T08:39:10.777Z,22.20
2018-09-09T08:41:40.489Z,21.77
2018-09-09T08:44:10.643Z,22.07
2018-09-09T08:46:40.424Z,22.51
2018-09-09T08:49:09.828Z,22.59
2018-09-09T08:51:39.353Z,23.62
2018-09-09T08:54:08.840Z,25.48
2018-09-09T08:56:38.547Z,29.47
2018-09-09T08:59:07.956Z,32.94
2018-09-09T09:01:37.391Z,35.54
2018-09-09T09:04:06.862Z,36.21
2018-09-09T09:06:36.181Z,36.22
2018-09-09T09:09:10.452Z,32.60
2018-09-09T09:11:40.264Z,33.32
2018-09-09T09:14:09.803Z,34.33
2018-09-09T09:16:39.224Z,36.65
2018-09-09T09:19:08.507Z,36.57
2018-09-09T09:21:37.885Z,35.82
2018-09-09T09:24:07.546Z,33.79
2018-09-09T09:26:37.020Z,36.57
2018-09-09T09:29:06.810Z,37.02
2018-09-09T09:31:36.345Z,37.68
2018-09-09T09:34:05.778Z,34.40
2018-09-09T09:36:35.244Z,33.66
2018-09-09T09:39:06.435Z,33.43
2018-09-09T09:41:35.932Z,34.74
2018-09-09T09:44:05.318Z,35.09
2018-09-09T09:46:34.826Z,35.58
2018-09-09T09:49:04.454Z,36.23
2018-09-09T09:51:33.894Z,37.94
2018-09-09T09:54:03.428Z,38.17
2018-09-09T09:56:33.554Z,38.59
2018-09-09T09:59:03.171Z,36.85
2018-09-09T10:01:32.699Z,36.77
2018-09-09T10:04:02.191Z,36.97
2018-09-09T10:06:31.540Z,36.46
2018-09-09T10:09:01.082Z,35.19
2018-09-09T10:11:30.552Z,35.47
2018-09-09T10:14:00.108Z,33.53
2018-09-09T10:16:29.961Z,34.25
2018-09-09T10:18:59.538Z,35.35
2018-09-09T10:21:28.997Z,33.90
2018-09-09T10:23:58.901Z,35.37
2018-09-09T10:26:28.356Z,36.99
2018-09-09T10:28:57.876Z,37.60
2018-09-09T10:31:27.385Z,37.23
2018-09-09T10:33:56.697Z,38.57
2018-09-09T10:36:26.411Z,38.46
2018-09-09T10:38:55.975Z,38.12
2018-09-09T10:41:25.396Z,39.65
2018-09-09T10:43:54.744Z,39.68
2018-09-09T10:46:24.322Z,39.96
2018-09-09T10:48:53.828Z,40.01
2018-09-09T10:51:23.203Z,39.43
2018-09-09T10:53:52.697Z,39.97
2018-09-09T10:56:22.161Z,39.62
2018-09-09T10:58:51.563Z,38.66
2018-09-09T11:01:21.542Z,38.60
2018-09-09T11:03:50.923Z,36.59
2018-09-09T11:06:20.325Z,36.73
2018-09-09T11:08:49.735Z,37.80
2018-09-09T11:11:19.281Z,37.78
2018-09-09T11:13:48.807Z,37.87
2018-09-09T11:16:18.275Z,39.85
2018-09-09T11:18:47.650Z,40.90
2018-09-09T11:21:17.023Z,40.89
2018-09-09T11:23:46.761Z,40.20
2018-09-09T11:26:16.294Z,40.98
2018-09-09T11:28:45.687Z,41.31
2018-09-09T11:31:15.076Z,41.92
2018-09-09T11:33:44.455Z,43.12
2018-09-09T11:36:14.932Z,43.79
2018-09-09T11:38:44.695Z,42.39
2018-09-09T11:41:14.178Z,42.97
2018-09-09T11:43:43.693Z,39.47
2018-09-09T11:46:13.385Z,39.97
2018-09-09T11:48:42.835Z,41.81
2018-09-09T11:51:12.285Z,42.86
2018-09-09T11:53:41.687Z,41.34
2018-09-09T11:56:11.101Z,39.19
2018-09-09T11:58:40.523Z,39.86
2018-09-09T12:01:09.976Z,39.97
2018-09-09T12:03:39.596Z,42.02
2018-09-09T12:06:09.043Z,41.16
2018-09-09T12:08:38.742Z,42.07
2018-09-09T12:11:08.174Z,41.84
2018-09-09T12:13:37.846Z,42.70
2018-09-09T12:16:07.226Z,44.20
2018-09-09T12:18:36.630Z,41.04
2018-09-09T12:21:06.268Z,41.50
2018-09-09T12:23:35.767Z,40.97
2018-09-09T12:26:05.244Z,38.96
2018-09-09T12:28:34.594Z,39.73
2018-09-09T12:31:04.351Z,39.25
2018-09-09T12:33:33.706Z,41.04
2018-09-09T12:36:03.152Z,40.10
2018-09-09T12:38:32.547Z,41.33
2018-09-09T12:41:01.914Z,40.83
2018-09-09T12:43:36.517Z,40.64
2018-09-09T12:46:11.278Z,41.68
2018-09-09T12:48:46.067Z,41.22
2018-09-09T12:51:15.468Z,38.23
2018-09-09T12:53:45.030Z,35.33
2018-09-09T12:56:14.404Z,34.21
2018-09-09T12:58:43.880Z,34.62
2018-09-09T13:01:13.530Z,35.02
2018-09-09T13:03:43.075Z,33.76
2018-09-09T13:06:12.649Z,32.80
2018-09-09T13:08:42.086Z,31.10
2018-09-09T13:11:12.303Z,31.87
2018-09-09T13:13:41.699Z,32.80
2018-09-09T13:16:11.288Z,32.79
2018-09-09T13:18:40.705Z,32.85
2018-09-09T13:21:10.233Z,33.68
2018-09-09T13:23:39.656Z,33.91
2018-09-09T13:26:09.150Z,34.61
2018-09-09T13:28:38.491Z,34.08
2018-09-09T13:31:07.860Z,32.44
2018-09-09T13:33:38.506Z,31.78
2018-09-09T13:36:07.928Z,32.24
2018-09-09T13:38:37.392Z,32.89
2018-09-09T13:41:06.932Z,33.51
2018-09-09T13:43:36.393Z,33.14
2018-09-09T13:46:05.835Z,32.38
2018-09-09T13:48:35.423Z,32.02
2018-09-09T13:51:04.751Z,31.45
2018-09-09T13:53:34.184Z,31.84
2018-09-09T13:56:03.928Z,33.51
2018-09-09T13:58:33.308Z,33.73
2018-09-09T14:01:02.718Z,33.91
2018-09-09T14:03:32.149Z,34.64
2018-09-09T14:06:01.516Z,32.48
2018-09-09T14:08:31.105Z,33.33
2018-09-09T14:11:00.506Z,34.36
2018-09-09T14:13:29.960Z,33.32
2018-09-09T14:15:59.463Z,33.46
2018-09-09T14:18:29.227Z,34.05
2018-09-09T14:20:59.125Z,33.09
2018-09-09T14:23:28.612Z,33.35
2018-09-09T14:25:58.058Z,33.73
2018-09-09T14:28:27.935Z,34.29
2018-09-09T14:30:57.370Z,34.66
2018-09-09T14:33:26.861Z,34.03
2018-09-09T14:35:56.222Z,33.45
2018-09-09T14:38:26.062Z,33.15
2018-09-09T14:40:55.614Z,32.01
2018-09-09T14:43:25.148Z,31.39
2018-09-09T14:45:54.646Z,31.33
2018-09-09T14:48:23.992Z,31.15
2018-09-09T14:50:53.497Z,31.38
2018-09-09T14:53:23.018Z,31.09
2018-09-09T14:55:52.535Z,30.70
2018-09-09T14:58:22.117Z,30.76
2018-09-09T15:00:51.553Z,30.63
2018-09-09T15:03:21.504Z,30.80
2018-09-09T15:05:50.874Z,30.31
2018-09-09T15:08:20.247Z,30.07
2018-09-09T15:10:49.720Z,30.19
2018-09-09T15:13:19.117Z,29.55
2018-09-09T15:15:48.518Z,29.45
2018-09-09T15:18:17.918Z,29.48
2018-09-09T15:20:50.736Z,29.45
2018-09-09T15:23:20.856Z,29.76
2018-09-09T15:25:50.537Z,29.58
2018-09-09T15:28:19.974Z,29.63
2018-09-09T15:30:49.538Z,28.91
2018-09-09T15:33:18.950Z,28.60
2018-09-09T15:35:48.479Z,28.64
2018-09-09T15:38:17.980Z,28.65
2018-09-09T15:40:47.602Z,28.54
2018-09-09T15:43:17.189Z,28.38
2018-09-09T15:45:46.803Z,28.40
2018-09-09T15:48:16.298Z,28.52
2018-09-09T15:50:45.972Z,28.79
2018-09-09T15:53:15.685Z,28.51
2018-09-09T15:55:45.352Z,27.48
2018-09-09T15:58:14.885Z,27.41
2018-09-09T16:00:44.653Z,27.54
2018-09-09T16:03:14.115Z,27.81
2018-09-09T16:05:43.588Z,28.05
2018-09-09T16:08:13.331Z,28.12
2018-09-09T16:10:43.232Z,28.15
2018-09-09T16:13:13.634Z,28.25
2018-09-09T16:15:43.215Z,27.79
2018-09-09T16:18:12.760Z,27.37
2018-09-09T16:20:42.341Z,27.50
2018-09-09T16:23:11.986Z,27.25
2018-09-09T16:25:41.896Z,27.41
2018-09-09T16:28:11.400Z,27.19
2018-09-09T16:30:52.529Z,27.03
2018-09-09T16:33:22.415Z,27.07
2018-09-09T16:35:51.862Z,26.88
2018-09-09T16:38:21.371Z,26.55
2018-09-09T16:40:50.859Z,26.49
2018-09-09T16:43:20.365Z,25.80
2018-09-09T16:45:49.790Z,25.79
2018-09-09T16:48:19.596Z,25.82
2018-09-09T16:50:49.411Z,25.61
2018-09-09T16:53:19.696Z,25.56
2018-09-09T16:55:49.371Z,25.79
2018-09-09T16:58:18.858Z,26.01
2018-09-09T17:00:48.381Z,25.83
2018-09-09T17:03:18.296Z,26.04
2018-09-09T17:05:47.828Z,26.18
2018-09-09T17:08:17.515Z,26.31
2018-09-09T17:10:47.095Z,26.22
2018-09-09T17:13:16.437Z,25.94
2018-09-09T17:15:46.294Z,25.72
2018-09-09T17:18:15.806Z,25.80
2018-09-09T17:20:45.522Z,25.53
2018-09-09T17:23:14.916Z,25.60
2018-09-09T17:25:44.241Z,25.48
2018-09-09T17:28:13.752Z,25.43
2018-09-09T17:30:43.415Z,25.51
2018-09-09T17:33:13.078Z,25.54
2018-09-09T17:35:42.806Z,25.46
2018-09-09T17:38:13.292Z,25.41
2018-09-09T17:40:43.117Z,25.23
2018-09-09T17:43:12.990Z,24.99
2018-09-09T17:45:42.457Z,25.24
2018-09-09T17:48:12.330Z,25.17
2018-09-09T17:50:42.201Z,25.06
2018-09-09T17:53:11.964Z,24.87
2018-09-09T17:55:41.749Z,24.92
2018-09-09T17:58:11.605Z,25.04
2018-09-09T18:00:42.213Z,25.07
2018-09-09T18:03:11.642Z,24.98
2018-09-09T18:05:41.533Z,24.80
2018-09-09T18:08:11.069Z,24.88
2018-09-09T18:10:40.440Z,24.93
2018-09-09T18:13:09.960Z,24.84
2018-09-09T18:15:42.225Z,24.78
2018-09-09T18:18:12.166Z,24.55
2018-09-09T18:20:41.903Z,24.49
2018-09-09T18:23:11.658Z,24.37
2018-09-09T18:25:41.097Z,24.21
2018-09-09T18:28:11.296Z,24.39
2018-09-09T18:30:40.799Z,24.40
2018-09-09T18:33:10.244Z,24.26
2018-09-09T18:35:39.800Z,24.15
2018-09-09T18:38:09.369Z,24.08
2018-09-09T18:40:38.800Z,23.72
2018-09-09T18:43:08.460Z,23.85
2018-09-09T18:45:38.242Z,23.79
2018-09-09T18:48:09.486Z,23.60
2018-09-09T18:50:39.194Z,23.50
2018-09-09T18:53:08.695Z,23.31
2018-09-09T18:55:38.283Z,23.41
2018-09-09T18:58:08.085Z,23.43
2018-09-09T19:00:37.565Z,23.34
2018-09-09T19:03:07.704Z,23.30
2018-09-09T19:05:37.395Z,23.18
2018-09-09T19:08:07.365Z,22.95
2018-09-09T19:10:36.884Z,23.17
2018-09-09T19:13:07.993Z,23.23
2018-09-09T19:15:37.557Z,23.02
2018-09-09T19:18:07.146Z,22.91
2018-09-09T19:20:36.793Z,22.70
2018-09-09T19:23:06.456Z,22.66
2018-09-09T19:25:36.321Z,22.61
2018-09-09T19:28:05.894Z,22.56
2018-09-09T19:30:36.018Z,22.54
2018-09-09T19:33:05.959Z,22.15
2018-09-09T19:35:36.053Z,22.13
2018-09-09T19:38:05.977Z,22.12
2018-09-09T19:40:35.518Z,21.88
2018-09-09T19:43:05.148Z,21.85
2018-09-09T19:45:34.664Z,22.02
2018-09-09T19:48:04.366Z,21.68
2018-09-09T19:50:34.045Z,21.76
2018-09-09T19:53:03.453Z,21.73
2018-09-09T19:55:32.927Z,21.44
2018-09-09T19:58:02.393Z,21.42
2018-09-09T20:00:32.090Z,21.42
2018-09-09T20:03:01.857Z,21.40
2018-09-09T20:05:31.402Z,21.43
2018-09-09T20:08:01.079Z,21.32
2018-09-09T20:10:30.524Z,21.16
2018-09-09T20:13:00.817Z,20.84
2018-09-09T20:15:30.305Z,20.82
2018-09-09T20:17:59.635Z,20.67
2018-09-09T20:20:29.043Z,20.59
2018-09-09T20:22:58.617Z,20.73
2018-09-09T20:25:27.992Z,20.67
2018-09-09T20:27:57.498Z,20.70
2018-09-09T20:30:27.589Z,20.46
2018-09-09T20:32:59.607Z,20.48
2018-09-09T20:35:29.298Z,20.54
2018-09-09T20:37:59.020Z,20.46
2018-09-09T20:40:28.758Z,20.49
2018-09-09T20:42:58.705Z,20.35
2018-09-09T20:45:33.167Z,20.45
2018-09-09T20:48:03.276Z,20.18
2018-09-09T20:50:33.016Z,20.18
2018-09-09T20:53:02.931Z,20.40
2018-09-09T20:55:32.501Z,20.40
2018-09-09T20:58:02.044Z,20.38
2018-09-09T21:00:31.619Z,20.15
2018-09-09T21:03:01.289Z,20.14
2018-09-09T21:05:30.832Z,20.03
2018-09-09T21:08:01.335Z,19.82
2018-09-09T21:10:31.177Z,19.89
2018-09-09T21:13:01.108Z,19.74
2018-09-09T21:15:30.936Z,19.82
2018-09-09T21:18:00.352Z,19.76
2018-09-09T21:20:29.785Z,19.74
2018-09-09T21:22:59.318Z,19.61
2018-09-09T21:25:28.776Z,19.41
2018-09-09T21:27:58.185Z,19.47
2018-09-09T21:30:27.729Z,19.53
2018-09-09T21:32:57.283Z,19.42
2018-09-09T21:35:26.672Z,19.34
2018-09-09T21:37:56.120Z,19.46
2018-09-09T21:40:26.003Z,19.45
2018-09-09T21:42:55.642Z,19.38
2018-09-09T21:45:25.252Z,19.19
2018-09-09T21:47:54.627Z,19.51
2018-09-09T21:50:24.118Z,19.40
2018-09-09T21:52:53.525Z,19.21
2018-09-09T21:55:22.986Z,19.34
2018-09-09T21:57:52.781Z,19.31
2018-09-09T22:00:22.476Z,19.20
2018-09-09T22:02:51.851Z,19.14
2018-09-09T22:05:21.381Z,19.16
2018-09-09T22:07:50.876Z,19.04
2018-09-09T22:10:20.239Z,18.82
2018-09-09T22:12:50.775Z,18.94
2018-09-09T22:15:21.103Z,18.90
2018-09-09T22:17:50.695Z,18.90
2018-09-09T22:20:20.152Z,18.80
2018-09-09T22:22:49.641Z,18.65
2018-09-09T22:25:19.398Z,18.41
2018-09-09T22:27:48.738Z,18.45
2018-09-09T22:30:18.221Z,18.59
2018-09-09T22:32:48.600Z,18.54
2018-09-09T22:35:19.719Z,18.74
2018-09-09T22:37:49.372Z,18.72
2018-09-09T22:40:18.820Z,18.71
2018-09-09T22:42:48.390Z,18.58
2018-09-09T22:45:17.887Z,18.52
2018-09-09T22:47:47.483Z,18.59
2018-09-09T22:50:16.874Z,18.63
2018-09-09T22:52:46.266Z,18.56
2018-09-09T22:55:15.743Z,18.52
2018-09-09T22:57:45.277Z,18.53
2018-09-09T23:00:14.780Z,18.51
2018-09-09T23:02:44.214Z,18.30
2018-09-09T23:05:13.966Z,18.29
2018-09-09T23:07:43.452Z,18.57
2018-09-09T23:10:12.746Z,18.73
2018-09-09T23:12:42.122Z,18.61
2018-09-09T23:15:11.476Z,18.70
2018-09-09T23:17:40.996Z,18.78
2018-09-09T23:20:10.459Z,18.56
2018-09-09T23:22:39.797Z,18.61
2018-09-09T23:25:09.287Z,18.70
2018-09-09T23:27:38.946Z,18.77
2018-09-09T23:30:08.247Z,18.78
2018-09-09T23:32:37.608Z,18.55
2018-09-09T23:35:07.009Z,18.67
2018-09-09T23:37:36.410Z,18.45
2018-09-09T23:40:05.956Z,18.34
2018-09-09T23:42:35.287Z,18.47
2018-09-09T23:45:04.913Z,18.49
2018-09-09T23:47:34.636Z,18.51
2018-09-09T23:50:04.311Z,18.39
2018-09-09T23:52:33.723Z,18.38
2018-09-09T23:55:03.072Z,18.40
2018-09-09T23:57:32.472Z,18.49
